La Fayette, Ohio
Current Conditions -  °F | °C
As of 9:39 AM on Thursday 30 Oct 2014 (Local Time) from KAOH Reporting Station
Haze Haze  
Wind Chill: 44°   Ceiling: 4200
Heat Index: 44°   Visibility: 3mi
Dew Point: 38°   Wind: 3mph
Humidity: 79%   Direction: 310°NW
Pressure: 30.16"   Gusts: NA
Location:  40.7587°N, 83.949°W
Report Text: KAOH 301339Z AUTO 31003KT 3SM HZ BKN042 07/03 A3016 RMK AO2 T00670033 $
Loading
Personal Weather Stations






























Interactive Weather Map
Tropical Storm Tracking
New forecast layout! Learn more

10-Day Weather Forecast

Advertisements
Track Severe Weather on mobile